Time;durP1;ratioP1;P1;durP2;ratioP2;P2;SDS_P1;SDS_P2;PMS_P1;PMS_P2;Temp;Humidity;BMP_temperature;BMP_pressure;BME280_temperature;BME280_humidity;BME280_pressure;Samples;Min_cycle;Max_cycle;Signal;HPM_P1;HPM_P2
2022/05/14 00:01:10;;;;;;;1.38;0.57;;;;;;;6.79;93.43;98926.22;5044906;28;20032;-68
2022/05/14 00:03:38;;;;;;;1.30;1.00;;;;;;;6.78;93.09;98927.09;5052486;28;20083;-68
2022/05/14 00:06:08;;;;;;;2.65;1.25;;;;;;;6.59;93.28;98926.22;5057070;28;20045;-68
2022/05/14 00:08:33;;;;;;;2.75;0.82;;;;;;;6.60;94.66;98936.69;5061961;28;20047;-68
2022/05/14 00:13:44;;;;;;;1.45;1.02;;;;;;;6.78;94.49;98933.22;5044322;28;20023;-68
2022/05/14 00:16:11;;;;;;;2.95;1.30;;;;;;;6.59;94.29;98921.00;5043978;28;20221;-68
2022/05/14 00:18:37;;;;;;;3.58;0.70;;;;;;;6.61;95.09;98929.69;5057424;28;20338;-68
2022/05/14 00:21:03;;;;;;;2.92;0.93;;;;;;;6.74;95.40;98920.13;5045051;28;20328;-68
2022/05/14 00:23:29;;;;;;;3.03;0.98;;;;;;;6.87;95.10;98927.13;5043911;28;20021;-68
2022/05/14 00:25:54;;;;;;;1.13;0.90;;;;;;;6.60;93.62;98923.63;5048677;28;20194;-68
2022/05/14 00:28:20;;;;;;;4.10;0.82;;;;;;;6.45;94.15;98917.47;5054146;28;20021;-68
2022/05/14 00:30:46;;;;;;;2.88;0.93;;;;;;;6.44;93.02;98911.41;5063270;28;20225;-69
2022/05/14 00:33:12;;;;;;;1.02;0.90;;;;;;;6.41;93.74;98915.75;5044507;28;20071;-69
2022/05/14 00:35:37;;;;;;;1.60;1.02;;;;;;;6.35;94.54;98915.72;5050098;28;20217;-69
2022/05/14 00:38:04;;;;;;;2.50;0.77;;;;;;;6.33;94.87;98918.34;5061852;28;20328;-69
2022/05/14 00:40:33;;;;;;;3.13;0.93;;;;;;;6.42;94.15;98917.47;5062716;28;20221;-68
2022/05/14 00:42:59;;;;;;;1.50;0.75;;;;;;;6.37;94.55;98921.84;5056246;28;20105;-68
2022/05/14 00:45:25;;;;;;;2.08;0.77;;;;;;;6.40;94.03;98920.09;5044888;28;20028;-68
2022/05/14 00:47:54;;;;;;;1.10;0.90;;;;;;;6.23;93.98;98920.94;5054259;28;20059;-68
2022/05/14 00:50:26;;;;;;;0.65;0.65;;;;;;;6.29;94.28;98926.16;5063182;28;20040;-68
2022/05/14 00:53:07;;;;;;;0.73;0.68;;;;;;;6.39;94.89;98918.34;5058737;28;20079;-68
2022/05/14 00:55:32;;;;;;;0.70;0.68;;;;;;;6.47;94.91;98920.97;5060370;28;20024;-68
2022/05/14 00:58:00;;;;;;;2.25;0.70;;;;;;;6.54;94.42;98917.50;5061037;28;20335;-68
2022/05/14 01:00:25;;;;;;;0.60;0.60;;;;;;;6.29;93.45;98913.97;5058058;28;20029;-68
2022/05/14 01:02:51;;;;;;;1.02;0.70;;;;;;;6.25;93.27;98913.97;5067110;28;20024;-68
2022/05/14 01:05:18;;;;;;;1.95;0.90;;;;;;;6.11;93.70;98916.53;5060216;28;20052;-68
2022/05/14 01:07:46;;;;;;;1.38;0.80;;;;;;;6.02;94.61;98915.66;5048798;28;20021;-68
2022/05/14 01:10:15;;;;;;;2.00;0.70;;;;;;;6.18;94.71;98923.56;5058239;28;20080;-68
2022/05/14 01:12:46;;;;;;;0.70;0.70;;;;;;;5.93;95.00;98916.50;5055512;28;20027;-68
2022/05/14 01:15:43;;;;;;;2.60;0.95;;;;;;;6.01;95.60;98911.31;5050703;28;20021;-68
2022/05/14 01:18:09;;;;;;;0.70;0.70;;;;;;;6.07;95.93;98904.34;5048441;28;20093;-68
2022/05/14 01:20:35;;;;;;;2.33;0.98;;;;;;;5.95;94.78;98909.53;5047175;28;20029;-68
2022/05/14 01:23:27;;;;;;;0.85;0.60;;;;;;;5.72;94.38;98910.28;5066571;28;20027;-68
2022/05/14 01:26:29;;;;;;;0.80;0.75;;;;;;;5.83;95.48;98908.63;5047342;28;20095;-68
2022/05/14 01:29:02;;;;;;;1.57;0.57;;;;;;;5.98;95.58;98911.31;5046966;28;20041;-68
2022/05/14 01:31:29;;;;;;;1.77;0.73;;;;;;;6.08;95.86;98915.69;5047032;28;20025;-68
2022/05/14 01:33:58;;;;;;;1.83;1.10;;;;;;;6.07;94.89;98913.91;5048462;28;20021;-68
2022/05/14 01:36:23;;;;;;;3.03;0.70;;;;;;;5.93;93.94;98907.78;5064314;28;20029;-68
2022/05/14 01:38:48;;;;;;;2.65;1.00;;;;;;;5.59;93.39;98903.25;5049671;28;20096;-68
2022/05/14 01:41:14;;;;;;;3.40;1.02;;;;;;;5.68;95.12;98903.31;5046834;28;20092;-68
2022/05/14 01:43:39;;;;;;;1.40;1.00;;;;;;;5.84;95.85;98916.47;5048775;28;20048;-68
2022/05/14 01:46:06;;;;;;;0.70;0.68;;;;;;;5.73;94.44;98906.81;5063222;28;20021;-68
2022/05/14 01:48:31;;;;;;;1.20;0.80;;;;;;;5.52;94.54;98901.50;5061358;28;20031;-68
2022/05/14 01:50:57;;;;;;;1.60;1.08;;;;;;;5.57;95.23;98905.88;5050453;28;20025;-68
2022/05/14 01:53:22;;;;;;;2.15;1.27;;;;;;;5.58;95.35;98904.13;5046610;28;20221;-68
2022/05/14 01:55:48;;;;;;;1.83;0.90;;;;;;;5.64;95.60;98901.56;5047761;28;20025;-68
2022/05/14 02:00:57;;;;;;;1.75;1.27;;;;;;;5.63;95.80;98905.03;5058116;28;20067;-68
2022/05/14 02:03:23;;;;;;;0.75;0.60;;;;;;;5.64;95.78;98898.94;5061772;28;20033;-68
2022/05/14 02:05:48;;;;;;;1.33;0.90;;;;;;;5.66;95.51;98905.06;5050809;28;20108;-68
2022/05/14 02:08:14;;;;;;;1.33;1.00;;;;;;;5.76;95.28;98901.63;5049311;28;20021;-68
2022/05/14 02:10:40;;;;;;;2.53;1.10;;;;;;;5.73;94.84;98891.16;5063949;28;20280;-68
2022/05/14 02:13:06;;;;;;;1.05;0.80;;;;;;;5.72;94.35;98889.38;5054138;28;20025;-68
2022/05/14 02:15:31;;;;;;;1.75;0.80;;;;;;;5.51;94.21;98894.53;5047373;28;20025;-68
2022/05/14 02:17:57;;;;;;;1.88;1.05;;;;;;;5.43;94.43;98891.00;5046893;28;20224;-68
2022/05/14 02:20:24;;;;;;;2.53;0.85;;;;;;;5.57;94.68;98897.19;5046158;28;20063;-68
2022/05/14 02:22:49;;;;;;;0.50;0.50;;;;;;;5.40;94.24;98891.00;5046247;28;20048;-68
2022/05/14 02:25:15;;;;;;;2.72;0.65;;;;;;;5.31;94.26;98896.19;5048696;28;20313;-68
2022/05/14 02:27:40;;;;;;;1.52;0.63;;;;;;;5.37;95.10;98896.19;5060401;28;20028;-68
2022/05/14 02:30:06;;;;;;;3.45;0.85;;;;;;;5.37;95.63;98906.63;5053252;28;20032;-68
2022/05/14 02:32:31;;;;;;;0.93;0.70;;;;;;;5.40;96.07;98901.44;5063446;28;20084;-68
2022/05/14 02:34:57;;;;;;;1.55;0.90;;;;;;;5.41;94.79;98897.97;5064015;28;20020;-68
2022/05/14 02:37:25;;;;;;;1.05;0.88;;;;;;;5.26;95.14;98890.06;5064779;28;20272;-68
2022/05/14 02:39:51;;;;;;;0.95;0.82;;;;;;;5.31;95.42;98890.97;5045789;28;20022;-68
2022/05/14 02:42:17;;;;;;;1.88;0.93;;;;;;;5.36;95.15;98899.69;5053760;28;20055;-68
2022/05/14 02:44:43;;;;;;;1.27;0.90;;;;;;;5.39;95.67;98904.91;5048409;28;20317;-68
2022/05/14 02:47:11;;;;;;;0.40;0.40;;;;;;;5.22;95.23;98896.97;5045817;28;20333;-68
2022/05/14 02:49:36;;;;;;;1.48;1.05;;;;;;;5.28;95.58;98901.38;5053260;28;20028;-68
2022/05/14 02:52:03;;;;;;;0.88;0.68;;;;;;;5.26;95.50;98897.88;5061406;28;20024;-68
2022/05/14 02:54:28;;;;;;;1.38;1.08;;;;;;;5.17;95.12;98897.81;5050264;28;20024;-68
2022/05/14 02:56:53;;;;;;;2.47;1.05;;;;;;;5.22;95.55;98903.97;5053438;28;20325;-68
2022/05/14 02:59:19;;;;;;;1.58;0.73;;;;;;;5.33;95.51;98899.66;5064086;28;20193;-68
2022/05/14 03:01:50;;;;;;;1.42;1.05;;;;;;;4.89;95.04;98893.28;5064703;28;20021;-68
2022/05/14 03:04:22;;;;;;;2.67;0.80;;;;;;;4.96;96.17;98897.66;5059399;28;20036;-68
2022/05/14 03:06:52;;;;;;;0.77;0.65;;;;;;;5.15;96.38;98900.41;5050918;28;20077;-68
2022/05/14 03:09:17;;;;;;;0.77;0.75;;;;;;;5.14;96.06;98903.03;5058966;28;20233;-68
2022/05/14 03:11:43;;;;;;;1.63;0.55;;;;;;;5.01;94.97;98895.97;5061663;28;20025;-68
2022/05/14 03:14:09;;;;;;;1.38;0.85;;;;;;;5.08;94.76;98903.88;5053595;28;20347;-68
2022/05/14 03:16:35;;;;;;;1.05;0.60;;;;;;;4.98;94.96;98896.84;5045523;28;20021;-68
2022/05/14 03:19:00;;;;;;;2.22;0.80;;;;;;;5.05;95.17;98902.97;5049773;28;20221;-68
2022/05/14 03:21:26;;;;;;;1.02;0.55;;;;;;;5.10;95.35;98904.75;5063965;28;20025;-68
2022/05/14 03:23:51;;;;;;;1.48;1.05;;;;;;;5.00;95.25;98894.25;5056599;28;20183;-68
2022/05/14 03:26:16;;;;;;;1.92;0.90;;;;;;;4.94;95.80;98899.41;5053931;28;20035;-68
2022/05/14 03:28:41;;;;;;;2.17;0.60;;;;;;;5.05;96.21;98906.44;5057842;28;20388;-68
2022/05/14 03:31:07;;;;;;;1.10;0.95;;;;;;;5.13;95.67;98901.28;5059187;28;20068;-68
2022/05/14 03:33:33;;;;;;;0.77;0.70;;;;;;;5.09;95.21;98904.75;5044979;28;20084;-68
2022/05/14 03:35:58;;;;;;;1.20;0.80;;;;;;;5.07;95.20;98906.47;5044923;28;20213;-68
2022/05/14 03:38:23;;;;;;;2.42;0.82;;;;;;;5.07;95.42;98903.84;5044624;28;20028;-68
2022/05/14 03:40:48;;;;;;;0.55;0.55;;;;;;;5.10;95.90;98902.16;5044652;28;20033;-68
2022/05/14 03:43:14;;;;;;;1.10;0.70;;;;;;;5.13;95.04;98906.50;5055563;28;20244;-68
2022/05/14 03:45:39;;;;;;;0.57;0.50;;;;;;;4.92;94.98;98901.13;5059561;28;20317;-68
2022/05/14 03:48:05;;;;;;;0.50;0.50;;;;;;;4.91;95.42;98904.59;5044712;28;20021;-68
2022/05/14 03:50:30;;;;;;;1.77;0.80;;;;;;;4.97;95.00;98894.22;5044409;28;20021;-68
2022/05/14 03:52:56;;;;;;;0.60;0.55;;;;;;;4.90;94.68;98905.47;5051503;28;20021;-68
2022/05/14 03:55:21;;;;;;;0.75;0.60;;;;;;;4.90;94.86;98902.88;5064524;28;20017;-68
2022/05/14 03:57:47;;;;;;;5.43;0.80;;;;;;;4.93;95.04;98914.19;5053208;28;20111;-68
2022/05/14 04:00:13;;;;;;;0.93;0.63;;;;;;;4.82;95.43;98913.25;5061951;28;20036;-68
2022/05/14 04:02:38;;;;;;;0.50;0.50;;;;;;;4.79;94.95;98914.94;5064143;28;20305;-68
2022/05/14 04:05:04;;;;;;;1.08;0.80;;;;;;;4.92;95.13;98922.00;5045156;28;20074;-68
2022/05/14 04:07:30;;;;;;;1.30;1.02;;;;;;;4.97;94.34;98915.94;5062993;28;20044;-68
2022/05/14 04:09:56;;;;;;;4.75;0.95;;;;;;;4.88;93.98;98918.50;5064335;28;20259;-68
2022/05/14 04:12:22;;;;;;;0.77;0.63;;;;;;;4.80;94.48;98921.91;5053019;28;20033;-68
2022/05/14 04:14:47;;;;;;;0.70;0.70;;;;;;;4.86;94.25;98921.94;5044101;28;20029;-68
2022/05/14 04:17:13;;;;;;;1.67;0.90;;;;;;;4.87;94.25;98921.97;5045732;28;20022;-68
2022/05/14 04:19:38;;;;;;;1.60;0.93;;;;;;;4.91;94.26;98915.03;5044288;28;20021;-68
2022/05/14 04:22:04;;;;;;;0.85;0.77;;;;;;;4.87;94.44;98913.28;5053603;28;20201;-68
2022/05/14 04:24:30;;;;;;;1.10;0.80;;;;;;;4.86;94.61;98916.72;5048678;28;20045;-68
2022/05/14 04:26:56;;;;;;;1.20;0.70;;;;;;;4.89;95.86;98911.53;5064130;28;20067;-68
2022/05/14 04:29:21;;;;;;;1.45;0.82;;;;;;;5.04;96.27;98922.09;5063883;28;20017;-68
2022/05/14 04:31:46;;;;;;;1.88;0.68;;;;;;;5.14;94.63;98923.91;5063075;28;20307;-68
2022/05/14 04:34:12;;;;;;;2.95;1.02;;;;;;;5.15;93.83;98920.41;5064092;28;20021;-68
2022/05/14 04:36:38;;;;;;;0.65;0.57;;;;;;;4.82;93.82;98917.56;5063064;28;20020;-68
2022/05/14 04:39:03;;;;;;;0.60;0.60;;;;;;;4.78;96.48;98921.03;5047483;28;20127;-68
2022/05/14 04:41:30;;;;;;;0.50;0.50;;;;;;;4.87;96.92;98918.50;5055929;28;20095;-68
2022/05/14 04:43:59;;;;;;;0.88;0.68;;;;;;;5.03;97.59;98922.97;5063649;28;20020;-68
2022/05/14 04:46:24;;;;;;;2.25;0.80;;;;;;;5.46;96.74;98922.34;5063990;28;20189;-68
2022/05/14 04:48:49;;;;;;;1.73;0.90;;;;;;;5.70;95.32;98925.94;5063974;28;20028;-68
2022/05/14 04:51:15;;;;;;;0.73;0.65;;;;;;;6.92;93.06;98936.69;5063363;28;20328;-68
2022/05/14 04:53:40;;;;;;;0.73;0.73;;;;;;;8.01;87.95;98947.81;5063714;28;20043;-68
2022/05/14 04:56:06;;;;;;;3.25;0.80;;;;;;;8.86;83.87;98948.22;5063637;28;20076;-68
2022/05/14 04:58:31;;;;;;;0.57;0.45;;;;;;;9.50;79.99;98941.50;5063358;28;20329;-68
2022/05/14 05:00:56;;;;;;;1.13;0.82;;;;;;;9.91;78.91;98949.81;5063587;28;20066;-68
2022/05/14 05:03:22;;;;;;;0.57;0.57;;;;;;;10.51;76.13;98956.94;5063442;28;20017;-68
2022/05/14 05:05:52;;;;;;;0.50;0.50;;;;;;;10.94;73.38;98958.03;5063150;28;20240;-68
2022/05/14 05:08:18;;;;;;;1.95;0.80;;;;;;;11.33;72.40;98952.09;5063552;28;20047;-69
2022/05/14 05:10:44;;;;;;;0.40;0.40;;;;;;;11.74;71.30;98954.88;5062474;28;20320;-69
2022/05/14 05:13:19;;;;;;;0.85;0.70;;;;;;;12.14;69.89;98965.53;5063257;28;20028;-69
2022/05/14 05:15:44;;;;;;;0.68;0.45;;;;;;;12.47;68.91;98963.06;5052274;28;20036;-69
2022/05/14 05:18:10;;;;;;;0.70;0.50;;;;;;;12.74;67.96;98964.22;5057907;28;20088;-69
2022/05/14 05:20:37;;;;;;;1.73;0.80;;;;;;;13.09;67.23;98958.16;5062631;28;20025;-69
2022/05/14 05:23:04;;;;;;;0.50;0.50;;;;;;;13.31;66.29;98962.00;5062354;28;20286;-69
2022/05/14 05:25:30;;;;;;;1.33;0.65;;;;;;;13.61;65.39;98971.81;5043426;28;20317;-69
2022/05/14 05:27:55;;;;;;;1.35;0.82;;;;;;;13.84;65.74;98972.06;5043399;28;20084;-69
2022/05/14 05:30:21;;;;;;;1.67;0.80;;;;;;;14.13;64.91;98973.00;5050057;28;20048;-69
2022/05/14 05:32:46;;;;;;;1.80;0.85;;;;;;;14.23;63.88;98963.03;5063282;28;20025;-69
2022/05/14 05:35:12;;;;;;;1.15;0.73;;;;;;;14.31;64.16;98971.63;5062363;28;20096;-69
2022/05/14 05:37:37;;;;;;;2.63;0.70;;;;;;;15.01;62.95;98977.44;5047117;28;20049;-69
2022/05/14 05:40:03;;;;;;;1.00;0.70;;;;;;;15.21;63.14;98968.81;5043284;28;20213;-69
2022/05/14 05:42:29;;;;;;;0.50;0.50;;;;;;;15.59;63.08;98976.41;5043317;28;20033;-69
2022/05/14 05:44:55;;;;;;;0.43;0.43;;;;;;;16.11;63.04;98983.44;5045200;28;20037;-69
2022/05/14 05:47:21;;;;;;;0.95;0.80;;;;;;;16.39;61.03;98995.63;5065238;28;20033;-69
2022/05/14 05:49:47;;;;;;;1.02;0.73;;;;;;;16.55;60.02;98991.50;5066706;28;20408;-69
2022/05/14 05:52:12;;;;;;;5.10;0.93;;;;;;;16.79;59.91;98992.38;5058786;28;20025;-69
2022/05/14 05:57:36;;;;;;;1.17;0.80;;;;;;;17.33;58.95;98984.88;5046586;28;20055;-69
2022/05/14 06:00:04;;;;;;;1.35;0.80;;;;;;;17.56;59.38;98991.97;5047076;28;20048;-69
2022/05/14 06:02:30;;;;;;;2.28;0.80;;;;;;;17.95;58.91;98996.47;5046224;28;20059;-69
2022/05/14 06:04:55;;;;;;;1.38;0.88;;;;;;;18.24;58.25;98989.84;5046330;28;20037;-69
2022/05/14 06:07:20;;;;;;;3.78;1.08;;;;;;;18.86;57.97;98993.25;5046638;28;20313;-69
2022/05/14 06:09:47;;;;;;;1.65;0.80;;;;;;;18.76;56.44;98991.91;5046355;28;20021;-69
2022/05/14 06:12:12;;;;;;;2.67;1.02;;;;;;;19.25;57.23;98989.53;5050154;28;20067;-69
2022/05/14 06:14:39;;;;;;;1.88;0.70;;;;;;;19.38;56.00;98992.50;5064019;28;20021;-69
2022/05/14 06:17:04;;;;;;;3.97;0.95;;;;;;;19.35;56.21;98987.31;5051771;28;20088;-69
2022/05/14 06:19:30;;;;;;;1.48;1.13;;;;;;;20.14;56.07;99001.09;5060309;28;20021;-69
2022/05/14 06:21:55;;;;;;;2.13;1.08;;;;;;;20.59;55.04;99000.44;5046131;28;20048;-69
2022/05/14 06:24:20;;;;;;;2.45;0.88;;;;;;;20.95;54.82;99006.53;5046022;28;20025;-69
2022/05/14 06:26:46;;;;;;;1.17;0.95;;;;;;;20.92;54.43;99002.16;5048789;28;20021;-69
2022/05/14 06:29:11;;;;;;;2.50;0.90;;;;;;;21.17;54.33;99002.56;5052775;28;20025;-69
2022/05/14 06:31:36;;;;;;;1.42;0.82;;;;;;;21.74;54.02;99009.13;5051854;28;20208;-68
2022/05/14 06:34:03;;;;;;;1.20;0.77;;;;;;;21.75;54.61;99009.97;5053405;28;20021;-70
2022/05/14 06:36:28;;;;;;;1.55;0.90;;;;;;;21.72;56.79;99002.06;5051919;28;20062;-70
2022/05/14 06:38:54;;;;;;;1.92;0.73;;;;;;;22.16;56.46;99011.94;5059711;28;20264;-70
2022/05/14 06:41:19;;;;;;;1.67;0.90;;;;;;;22.99;53.61;99012.13;5055592;28;20031;-70
2022/05/14 06:43:45;;;;;;;4.07;1.20;;;;;;;23.16;50.92;99003.88;5059124;28;20030;-70
2022/05/14 06:46:11;;;;;;;3.38;1.20;;;;;;;23.37;49.60;99002.53;5050826;28;20313;-70
2022/05/14 06:48:36;;;;;;;2.50;0.80;;;;;;;23.83;49.17;99014.66;5047332;28;20054;-70
2022/05/14 06:51:05;;;;;;;3.63;1.23;;;;;;;23.36;51.13;98997.25;5059836;28;20028;-70
2022/05/14 06:53:33;;;;;;;2.03;1.10;;;;;;;23.81;49.21;99013.03;5050755;28;20016;-70
2022/05/14 06:55:59;;;;;;;2.35;1.23;;;;;;;23.93;45.58;99010.38;5061064;28;20129;-70
2022/05/14 06:58:38;;;;;;;4.60;1.52;;;;;;;23.40;47.20;99005.00;5061432;28;20340;-70
2022/05/14 07:01:04;;;;;;;4.97;1.27;;;;;;;22.86;49.25;99003.13;5048291;28;20201;-70
2022/05/14 07:09:01;;;;;;;4.32;1.40;;;;;;;24.86;45.58;99020.03;5056163;28;20087;-70
2022/05/14 07:11:27;;;;;;;3.35;1.40;;;;;;;24.80;43.78;99015.06;5051073;28;20041;-70
2022/05/14 07:13:52;;;;;;;2.60;1.27;;;;;;;25.01;44.25;99008.16;5054931;28;20059;-69
2022/05/14 07:16:17;;;;;;;5.57;1.55;;;;;;;24.88;45.10;99010.03;5057212;28;20025;-70
2022/05/14 07:18:43;;;;;;;2.58;1.13;;;;;;;25.23;43.83;99016.44;5053977;28;20025;-70
2022/05/14 07:21:09;;;;;;;5.70;1.50;;;;;;;25.33;42.67;99007.69;5059357;28;20427;-70
2022/05/14 07:23:34;;;;;;;3.65;1.38;;;;;;;25.70;43.27;99012.09;5057352;28;20025;-70
2022/05/14 07:26:07;;;;;;;4.18;1.15;;;;;;;25.38;42.43;99010.91;5055311;28;20344;-70
2022/05/14 07:28:34;;;;;;;2.65;1.10;;;;;;;25.57;42.39;99012.16;5057819;28;20025;-70
2022/05/14 07:31:01;;;;;;;3.15;1.17;;;;;;;25.88;41.45;99021.50;5053688;28;20062;-70
2022/05/14 07:33:26;;;;;;;3.88;1.00;;;;;;;26.26;41.32;99016.81;5075925;28;20040;-70
2022/05/14 07:35:52;;;;;;;2.38;1.10;;;;;;;25.87;42.27;99011.69;5057021;28;20035;-70
2022/05/14 07:38:18;;;;;;;2.85;1.52;;;;;;;26.46;42.35;99025.09;5050230;28;20021;-70
2022/05/14 07:40:43;;;;;;;4.57;1.27;;;;;;;26.26;40.34;99014.94;5044664;28;20025;-70
2022/05/14 07:43:16;;;;;;;1.80;0.85;;;;;;;26.49;39.27;99015.88;5048978;28;20067;-70
2022/05/14 07:45:45;;;;;;;2.38;0.90;;;;;;;26.71;41.08;99018.66;5060961;28;20017;-70
2022/05/14 07:49:32;;;;;;;2.58;1.08;;;;;;;26.44;39.82;99010.84;5075327;28;20366;-70
2022/05/14 07:51:58;;;;;;;8.43;0.90;;;;;;;26.59;39.88;99014.19;5068609;28;20060;-71
2022/05/14 07:54:24;;;;;;;3.10;1.30;;;;;;;26.75;40.19;99021.00;5067417;28;20028;-71
2022/05/14 07:56:49;;;;;;;5.28;1.20;;;;;;;26.12;39.98;99008.88;5076460;28;20024;-71
2022/05/14 07:59:15;;;;;;;4.47;1.35;;;;;;;25.53;40.18;98999.00;5074871;28;20040;-71
2022/05/14 08:01:41;;;;;;;3.67;1.15;;;;;;;26.28;38.93;99004.91;5075416;28;20114;-70
2022/05/14 08:04:07;;;;;;;3.00;0.90;;;;;;;26.18;39.45;99000.31;5074114;28;20029;-70
2022/05/14 08:06:33;;;;;;;2.97;1.25;;;;;;;25.98;39.16;99006.38;5073703;28;20029;-70
2022/05/14 08:08:59;;;;;;;3.13;0.90;;;;;;;26.61;41.67;99017.63;5066102;28;20085;-70
2022/05/14 08:11:24;;;;;;;1.73;0.98;;;;;;;27.10;39.87;99010.06;5061813;28;20240;-70
2022/05/14 08:13:53;;;;;;;2.65;1.10;;;;;;;27.20;38.43;99008.34;5069724;28;20096;-70
2022/05/14 08:16:18;;;;;;;2.03;1.10;;;;;;;27.36;38.71;99008.84;5060695;28;20025;-70
2022/05/14 08:18:44;;;;;;;2.30;1.00;;;;;;;27.36;38.13;99003.44;5085418;28;20185;-71
2022/05/14 08:26:37;;;;;;;2.35;1.00;;;;;;;27.49;39.69;99006.88;5062987;28;20023;-70
2022/05/14 08:29:03;;;;;;;3.45;1.17;;;;;;;27.92;37.70;99005.06;5074093;28;20119;-71
2022/05/14 08:31:28;;;;;;;1.20;0.80;;;;;;;28.04;39.57;99009.47;5060458;28;20031;-71
2022/05/14 08:33:53;;;;;;;1.60;0.80;;;;;;;28.43;37.26;99011.47;5064345;28;20062;-71
2022/05/14 08:36:18;;;;;;;2.73;1.10;;;;;;;28.29;36.47;99002.81;5061152;28;20021;-69
2022/05/14 08:38:44;;;;;;;2.10;1.00;;;;;;;28.42;36.05;99008.91;5072616;28;20265;-70
2022/05/14 08:41:09;;;;;;;6.68;1.02;;;;;;;28.22;37.07;99005.19;5066096;28;20317;-70
2022/05/14 08:43:47;;;;;;;5.65;1.08;;;;;;;27.39;38.11;98986.97;5073053;28;20017;-70
2022/05/14 08:46:16;;;;;;;3.40;0.90;;;;;;;28.01;36.92;98998.03;5070756;28;20320;-70
2022/05/14 08:48:41;;;;;;;2.17;1.10;;;;;;;27.93;35.68;98998.66;5062264;28;20367;-71
2022/05/14 08:51:16;;;;;;;4.10;1.30;;;;;;;28.13;37.88;98992.44;5071813;28;20020;-71
2022/05/14 08:53:43;;;;;;;2.22;1.00;;;;;;;28.15;35.35;98990.44;5073647;28;20048;-71
2022/05/14 08:56:12;;;;;;;2.75;1.17;;;;;;;28.46;37.57;98995.00;5060804;28;20213;-70
2022/05/14 08:59:07;;;;;;;1.13;0.85;;;;;;;28.61;34.87;98999.09;5060760;28;20092;-70
2022/05/14 09:01:37;;;;;;;2.28;1.02;;;;;;;28.77;35.18;98999.47;5057149;28;20278;-70
2022/05/14 09:04:04;;;;;;;3.22;0.85;;;;;;;28.72;36.32;98996.28;5053592;28;20037;-71
2022/05/14 09:06:29;;;;;;;4.03;1.13;;;;;;;28.26;36.17;98987.69;5051330;28;20029;-71
2022/05/14 09:08:55;;;;;;;5.35;1.23;;;;;;;27.74;36.15;98984.09;5049394;28;20055;-71
2022/05/14 09:11:36;;;;;;;4.20;1.23;;;;;;;28.15;36.62;98990.44;5050308;28;20021;-71
2022/05/14 09:14:02;;;;;;;1.50;1.00;;;;;;;28.20;39.16;98982.81;5058503;28;20041;-71
2022/05/14 09:16:35;;;;;;;2.67;1.13;;;;;;;28.56;36.95;98990.50;5063325;28;20036;-71
2022/05/14 09:19:13;;;;;;;2.80;1.00;;;;;;;28.65;35.92;98989.69;5053740;28;20257;-71
2022/05/14 09:21:49;;;;;;;2.65;1.23;;;;;;;28.81;34.88;98992.78;5054668;28;20033;-71
2022/05/14 09:24:18;;;;;;;2.03;0.90;;;;;;;28.61;35.06;98993.69;5051977;28;20028;-70
2022/05/14 09:26:44;;;;;;;1.75;0.95;;;;;;;28.64;36.07;98987.13;5046817;28;20040;-71
2022/05/14 09:29:16;;;;;;;2.20;0.98;;;;;;;28.53;34.93;98990.75;5063910;28;20035;-71
2022/05/14 09:32:00;;;;;;;7.47;1.08;;;;;;;27.63;34.85;98982.25;5059892;28;20092;-71
2022/05/14 09:34:28;;;;;;;2.70;1.10;;;;;;;27.53;37.33;98984.03;5049227;28;20044;-71
2022/05/14 09:37:09;;;;;;;2.88;0.90;;;;;;;28.44;37.03;98991.50;5046736;28;20355;-71
2022/05/14 09:39:35;;;;;;;;;;;;;;;28.85;35.16;98996.94;5048454;28;20052;-71
2022/05/14 09:42:01;;;;;;;3.13;1.10;;;;;;;28.50;34.95;98985.59;5047135;28;19909;-71
2022/05/14 09:45:00;;;;;;;2.25;0.93;;;;;;;28.75;35.19;98985.19;5051537;28;20382;-71
2022/05/14 09:47:30;;;;;;;3.08;1.13;;;;;;;28.83;37.04;98989.94;5034208;28;20050;-71
2022/05/14 09:50:04;;;;;;;2.08;0.95;;;;;;;28.57;37.31;98983.25;5048563;28;20344;-71
2022/05/14 09:52:33;;;;;;;3.72;1.20;;;;;;;29.18;35.79;98976.88;5047383;28;20040;-71
2022/05/14 09:55:01;;;;;;;4.78;1.42;;;;;;;29.16;33.48;98973.41;5055666;28;20016;-71
2022/05/14 09:57:49;;;;;;;6.38;1.50;;;;;;;28.66;34.38;98982.44;5052403;28;20025;-71
2022/05/14 10:00:22;;;;;;;4.30;0.90;;;;;;;28.64;36.77;98971.75;5055307;28;20074;-71
2022/05/14 10:03:21;;;;;;;4.28;1.30;;;;;;;28.74;35.00;98969.94;5058289;28;20017;-70
2022/05/14 10:05:50;;;;;;;2.47;1.00;;;;;;;28.39;35.05;98972.13;5045490;28;20039;-71
2022/05/14 10:08:58;;;;;;;3.67;1.33;;;;;;;28.33;39.25;98971.78;5046390;28;20088;-72
2022/05/14 10:11:34;;;;;;;3.25;1.48;;;;;;;28.48;35.44;98965.94;5045635;28;20109;-72
2022/05/14 10:14:25;;;;;;;8.23;4.72;;;;;;;28.40;36.56;98968.41;5054438;28;20052;-72
2022/05/14 10:16:58;;;;;;;3.67;1.50;;;;;;;28.24;36.92;98968.00;5059397;28;20213;-72
2022/05/14 10:19:44;;;;;;;3.25;1.00;;;;;;;28.28;35.71;98974.03;5058429;28;20345;-72
2022/05/14 10:28:20;;;;;;;4.45;1.17;;;;;;;28.34;36.46;98962.66;5061553;28;20089;-71
2022/05/14 10:30:55;;;;;;;4.95;1.20;;;;;;;28.53;37.27;98974.50;5066353;28;20291;-71
2022/05/14 10:33:24;;;;;;;2.97;1.30;;;;;;;28.50;35.36;98966.66;5055910;28;20317;-72
2022/05/14 10:36:19;;;;;;;3.17;0.90;;;;;;;28.79;34.11;98958.69;5067618;28;20216;-72
2022/05/14 10:39:09;;;;;;;1.77;0.90;;;;;;;28.61;36.44;98955.75;5066497;28;20315;-72
2022/05/14 10:41:46;;;;;;;3.72;0.95;;;;;;;28.47;34.82;98956.09;5044308;28;20043;-72
2022/05/14 10:44:14;;;;;;;4.15;1.25;;;;;;;28.40;33.24;98941.31;5049483;28;20205;-72
2022/05/14 10:46:41;;;;;;;1.95;1.08;;;;;;;27.67;36.91;98940.44;5047654;28;20024;-72
2022/05/14 10:49:32;;;;;;;3.10;1.00;;;;;;;27.82;34.69;98939.16;5050964;28;20064;-72
2022/05/14 10:51:59;;;;;;;3.08;1.05;;;;;;;27.58;35.47;98935.78;5052350;28;20022;-72
2022/05/14 10:54:25;;;;;;;1.77;1.30;;;;;;;27.43;37.37;98920.88;5056105;28;20024;-71
2022/05/14 10:56:56;;;;;;;7.32;2.53;;;;;;;27.95;35.72;98933.59;5056011;28;20026;-71
2022/05/14 10:59:33;;;;;;;;;;;;;;;27.75;34.86;98927.16;5050157;28;20329;-71
2022/05/14 11:02:02;;;;;;;2.65;1.00;;;;;;;27.57;36.45;98923.28;5050426;28;19924;-71
2022/05/14 11:04:32;;;;;;;3.35;2.30;;;;;;;27.90;34.53;98923.16;5049149;28;20025;-71
2022/05/14 11:07:00;;;;;;;4.32;1.10;;;;;;;27.96;35.92;98925.34;5049488;28;20063;-71
2022/05/14 11:09:47;;;;;;;2.53;1.10;;;;;;;27.41;35.41;98916.56;5043947;28;20071;-71
2022/05/14 11:12:14;;;;;;;4.40;1.40;;;;;;;27.65;35.78;98918.06;5046235;28;20127;-71
2022/05/14 11:14:51;;;;;;;2.42;0.80;;;;;;;27.54;36.44;98907.31;5046378;28;20029;-71
2022/05/14 11:17:29;;;;;;;2.33;1.10;;;;;;;27.32;35.11;98906.50;5046128;28;20025;-71
2022/05/14 11:20:03;;;;;;;4.82;0.77;;;;;;;27.55;35.42;98903.59;5057753;28;20277;-71
2022/05/14 11:22:50;;;;;;;3.60;1.08;;;;;;;27.22;38.38;98900.97;5050967;28;20030;-71
2022/05/14 11:25:21;;;;;;;2.35;1.10;;;;;;;27.02;37.70;98899.06;5049579;28;20123;-71
2022/05/14 11:28:06;;;;;;;4.22;1.15;;;;;;;26.69;36.36;98890.97;5046699;28;20025;-71
2022/05/14 11:31:09;;;;;;;5.53;1.30;;;;;;;25.72;38.15;98886.13;5050510;28;20055;-71
2022/05/14 11:33:35;;;;;;;2.38;1.10;;;;;;;24.79;41.35;98878.72;5049290;28;20056;-71
2022/05/14 11:36:18;;;;;;;1.83;1.38;;;;;;;25.37;40.46;98891.47;5052319;28;20025;-71
2022/05/14 11:38:47;;;;;;;3.63;1.52;;;;;;;25.56;40.58;98893.66;5044087;28;20014;-71
2022/05/14 11:41:31;;;;;;;1.65;0.90;;;;;;;25.18;42.04;98886.56;5050489;28;20020;-71
2022/05/14 11:43:56;;;;;;;2.90;0.90;;;;;;;24.98;40.65;98878.22;5061432;28;20028;-71
2022/05/14 11:46:48;;;;;;;1.30;0.93;;;;;;;24.81;45.52;98884.84;5050102;28;20040;-71
2022/05/14 11:49:23;;;;;;;3.03;1.30;;;;;;;24.49;44.67;98872.81;5046139;28;20040;-71
2022/05/14 11:52:07;;;;;;;2.13;1.17;;;;;;;24.82;42.23;98877.63;5051741;28;20025;-71
2022/05/14 11:55:07;;;;;;;2.70;1.52;;;;;;;24.79;40.95;98878.72;5053182;28;20071;-71
2022/05/14 11:57:38;;;;;;;2.72;1.13;;;;;;;24.61;41.83;98880.03;5053241;28;20037;-71
2022/05/14 12:00:17;;;;;;;2.10;1.27;;;;;;;24.36;43.83;98885.44;5048355;28;20333;-71
2022/05/14 12:03:12;;;;;;;2.63;1.35;;;;;;;24.56;42.32;98881.31;5046629;28;20036;-71
2022/05/14 12:05:44;;;;;;;3.55;1.15;;;;;;;24.61;41.07;98882.72;5046841;28;20041;-71
2022/05/14 12:08:21;;;;;;;5.00;1.17;;;;;;;24.35;42.39;98883.72;5050415;28;20051;-71
2022/05/14 12:11:04;;;;;;;3.47;1.25;;;;;;;24.01;43.59;98878.13;5049449;28;20027;-71
2022/05/14 12:13:39;;;;;;;2.13;0.80;;;;;;;23.68;45.19;98878.59;5048656;28;20037;-71